sensor_id;sensor_type;location;lat;lon;timestamp;pressure;altitude;pressure_sealevel;temperature;humidity
42859;BME280;28505;56.970;40.998;2023-02-13T00:04:05;100085.81;;;-9.84;100.00
42859;BME280;28505;56.970;40.998;2023-02-13T00:09:27;100066.91;;;-9.86;100.00
42859;BME280;28505;56.970;40.998;2023-02-13T00:14:50;100045.25;;;-9.87;100.00
42859;BME280;28505;56.970;40.998;2023-02-13T00:20:12;100027.44;;;-10.00;100.00
42859;BME280;28505;56.970;40.998;2023-02-13T00:25:34;100052.16;;;-10.04;100.00
42859;BME280;28505;56.970;40.998;2023-02-13T00:31:03;100055.31;;;-9.92;100.00
42859;BME280;28505;56.970;40.998;2023-02-13T00:36:25;100044.09;;;-9.84;100.00
42859;BME280;28505;56.970;40.998;2023-02-13T00:41:47;99989.38;;;-10.27;100.00
42859;BME280;28505;56.970;40.998;2023-02-13T00:47:09;100041.72;;;-10.04;100.00
42859;BME280;28505;56.970;40.998;2023-02-13T00:52:31;100043.88;;;-9.99;100.00
42859;BME280;28505;56.970;40.998;2023-02-13T00:57:54;100044.00;;;-10.09;100.00
42859;BME280;28505;56.970;40.998;2023-02-13T01:03:16;100010.72;;;-10.23;100.00
42859;BME280;28505;56.970;40.998;2023-02-13T01:08:39;99998.97;;;-10.35;100.00
42859;BME280;28505;56.970;40.998;2023-02-13T01:14:02;99995.94;;;-10.57;100.00
42859;BME280;28505;56.970;40.998;2023-02-13T01:19:24;99975.00;;;-10.81;100.00
42859;BME280;28505;56.970;40.998;2023-02-13T01:24:46;99968.88;;;-10.72;100.00
42859;BME280;28505;56.970;40.998;2023-02-13T01:30:10;99976.59;;;-10.54;100.00
42859;BME280;28505;56.970;40.998;2023-02-13T01:35:34;99966.28;;;-10.64;100.00
42859;BME280;28505;56.970;40.998;2023-02-13T01:40:56;99953.66;;;-10.85;100.00
42859;BME280;28505;56.970;40.998;2023-02-13T01:46:35;99935.69;;;-10.96;100.00
42859;BME280;28505;56.970;40.998;2023-02-13T01:51:58;99930.53;;;-10.88;100.00
42859;BME280;28505;56.970;40.998;2023-02-13T01:57:24;99929.88;;;-10.90;100.00
42859;BME280;28505;56.970;40.998;2023-02-13T02:03:29;99922.56;;;-10.87;100.00
42859;BME280;28505;56.970;40.998;2023-02-13T02:08:53;99928.31;;;-10.75;100.00
42859;BME280;28505;56.970;40.998;2023-02-13T02:14:18;99928.06;;;-10.55;100.00
42859;BME280;28505;56.970;40.998;2023-02-13T02:37:34;99906.44;;;-10.48;100.00
42859;BME280;28505;56.970;40.998;2023-02-13T02:54:53;99872.03;;;-10.59;100.00
42859;BME280;28505;56.970;40.998;2023-02-13T03:00:41;99884.13;;;-10.18;100.00
42859;BME280;28505;56.970;40.998;2023-02-13T03:06:39;99870.16;;;-10.17;100.00
42859;BME280;28505;56.970;40.998;2023-02-13T03:12:07;99865.75;;;-10.16;100.00
42859;BME280;28505;56.970;40.998;2023-02-13T03:17:49;99858.59;;;-10.06;100.00
42859;BME280;28505;56.970;40.998;2023-02-13T03:29:22;99836.75;;;-9.97;100.00
42859;BME280;28505;56.970;40.998;2023-02-13T03:41:14;99812.59;;;-9.66;100.00
42859;BME280;28505;56.970;40.998;2023-02-13T03:46:44;99800.50;;;-9.51;100.00
42859;BME280;28505;56.970;40.998;2023-02-13T03:52:17;99810.56;;;-9.39;100.00
42859;BME280;28505;56.970;40.998;2023-02-13T03:57:44;99810.03;;;-9.18;100.00
42859;BME280;28505;56.970;40.998;2023-02-13T04:09:04;99764.91;;;-9.52;100.00
42859;BME280;28505;56.970;40.998;2023-02-13T04:14:50;99765.41;;;-9.48;100.00
42859;BME280;28505;56.970;40.998;2023-02-13T04:20:15;99766.78;;;-9.21;100.00
42859;BME280;28505;56.970;40.998;2023-02-13T04:25:39;99751.84;;;-9.04;100.00
42859;BME280;28505;56.970;40.998;2023-02-13T04:31:02;99736.63;;;-9.01;100.00
42859;BME280;28505;56.970;40.998;2023-02-13T04:36:25;99741.13;;;-8.86;100.00
42859;BME280;28505;56.970;40.998;2023-02-13T04:41:47;99723.66;;;-8.86;100.00
42859;BME280;28505;56.970;40.998;2023-02-13T04:47:09;99698.34;;;-8.85;100.00
42859;BME280;28505;56.970;40.998;2023-02-13T04:52:32;99718.22;;;-8.53;100.00
42859;BME280;28505;56.970;40.998;2023-02-13T04:57:54;99713.44;;;-8.50;100.00
42859;BME280;28505;56.970;40.998;2023-02-13T05:03:16;99703.81;;;-8.49;100.00
42859;BME280;28505;56.970;40.998;2023-02-13T05:08:38;99712.47;;;-8.34;100.00
42859;BME280;28505;56.970;40.998;2023-02-13T05:14:00;99676.84;;;-8.50;100.00
42859;BME280;28505;56.970;40.998;2023-02-13T05:19:23;99686.31;;;-8.34;100.00
42859;BME280;28505;56.970;40.998;2023-02-13T05:24:45;99687.25;;;-8.27;100.00
42859;BME280;28505;56.970;40.998;2023-02-13T05:30:08;99684.44;;;-8.25;100.00
42859;BME280;28505;56.970;40.998;2023-02-13T05:35:30;99691.41;;;-8.17;100.00
42859;BME280;28505;56.970;40.998;2023-02-13T05:40:52;99689.34;;;-8.07;100.00
42859;BME280;28505;56.970;40.998;2023-02-13T05:46:14;99681.84;;;-8.10;100.00
42859;BME280;28505;56.970;40.998;2023-02-13T05:51:36;99693.31;;;-7.96;100.00
42859;BME280;28505;56.970;40.998;2023-02-13T05:56:58;99684.03;;;-7.84;100.00
42859;BME280;28505;56.970;40.998;2023-02-13T06:02:17;99660.13;;;-7.81;100.00
42859;BME280;28505;56.970;40.998;2023-02-13T06:07:39;99683.00;;;-7.54;100.00
42859;BME280;28505;56.970;40.998;2023-02-13T06:13:02;99678.38;;;-7.37;100.00
42859;BME280;28505;56.970;40.998;2023-02-13T06:18:24;99670.50;;;-7.22;100.00
42859;BME280;28505;56.970;40.998;2023-02-13T06:23:45;99656.47;;;-7.14;100.00
42859;BME280;28505;56.970;40.998;2023-02-13T06:29:08;99660.16;;;-7.09;100.00
42859;BME280;28505;56.970;40.998;2023-02-13T06:34:31;99653.16;;;-7.01;100.00
42859;BME280;28505;56.970;40.998;2023-02-13T06:39:53;99629.59;;;-7.01;100.00
42859;BME280;28505;56.970;40.998;2023-02-13T06:45:15;99645.44;;;-6.88;100.00
42859;BME280;28505;56.970;40.998;2023-02-13T06:50:37;99646.94;;;-6.79;100.00
42859;BME280;28505;56.970;40.998;2023-02-13T06:56:02;99626.28;;;-6.89;100.00
42859;BME280;28505;56.970;40.998;2023-02-13T07:01:25;99592.69;;;-6.78;100.00
42859;BME280;28505;56.970;40.998;2023-02-13T07:06:50;99567.56;;;-6.73;100.00
42859;BME280;28505;56.970;40.998;2023-02-13T07:12:11;99552.47;;;-6.64;100.00
42859;BME280;28505;56.970;40.998;2023-02-13T07:17:33;99553.81;;;-6.47;100.00
42859;BME280;28505;56.970;40.998;2023-02-13T07:23:03;99536.25;;;-6.46;100.00
42859;BME280;28505;56.970;40.998;2023-02-13T07:28:26;99545.44;;;-6.29;100.00
42859;BME280;28505;56.970;40.998;2023-02-13T07:33:49;99538.00;;;-6.19;100.00
42859;BME280;28505;56.970;40.998;2023-02-13T07:39:11;99549.81;;;-6.01;100.00
42859;BME280;28505;56.970;40.998;2023-02-13T07:44:34;99532.22;;;-6.07;100.00
42859;BME280;28505;56.970;40.998;2023-02-13T07:49:55;99505.59;;;-6.04;100.00
42859;BME280;28505;56.970;40.998;2023-02-13T07:55:18;99531.09;;;-5.78;100.00
42859;BME280;28505;56.970;40.998;2023-02-13T08:00:40;99497.53;;;-5.83;100.00
42859;BME280;28505;56.970;40.998;2023-02-13T08:06:02;99514.97;;;-5.69;100.00
42859;BME280;28505;56.970;40.998;2023-02-13T08:11:30;99475.56;;;-5.82;100.00
42859;BME280;28505;56.970;40.998;2023-02-13T08:17:12;99482.44;;;-5.74;100.00
42859;BME280;28505;56.970;40.998;2023-02-13T08:22:38;99483.06;;;-5.59;100.00
42859;BME280;28505;56.970;40.998;2023-02-13T08:28:01;99469.72;;;-5.57;100.00
42859;BME280;28505;56.970;40.998;2023-02-13T08:33:23;99451.16;;;-5.56;100.00
42859;BME280;28505;56.970;40.998;2023-02-13T08:38:46;99458.22;;;-5.43;100.00
42859;BME280;28505;56.970;40.998;2023-02-13T08:44:09;99438.63;;;-5.54;100.00
42859;BME280;28505;56.970;40.998;2023-02-13T08:49:32;99432.38;;;-5.39;100.00
42859;BME280;28505;56.970;40.998;2023-02-13T08:54:54;99425.69;;;-5.35;100.00
42859;BME280;28505;56.970;40.998;2023-02-13T09:00:16;99404.28;;;-5.46;100.00
42859;BME280;28505;56.970;40.998;2023-02-13T09:05:39;99398.22;;;-5.39;100.00
42859;BME280;28505;56.970;40.998;2023-02-13T09:11:03;99364.66;;;-5.37;100.00
42859;BME280;28505;56.970;40.998;2023-02-13T09:16:27;99366.69;;;-5.33;100.00
42859;BME280;28505;56.970;40.998;2023-02-13T09:21:48;99387.50;;;-5.25;100.00
42859;BME280;28505;56.970;40.998;2023-02-13T09:27:10;99351.75;;;-5.39;100.00
42859;BME280;28505;56.970;40.998;2023-02-13T09:32:32;99342.44;;;-5.35;100.00
42859;BME280;28505;56.970;40.998;2023-02-13T09:37:54;99328.66;;;-5.17;100.00
42859;BME280;28505;56.970;40.998;2023-02-13T09:43:29;99330.66;;;-5.12;100.00
42859;BME280;28505;56.970;40.998;2023-02-13T09:48:56;99352.44;;;-4.92;100.00
42859;BME280;28505;56.970;40.998;2023-02-13T09:54:21;99316.47;;;-4.98;100.00
42859;BME280;28505;56.970;40.998;2023-02-13T10:16:57;99332.78;;;-4.76;100.00
42859;BME280;28505;56.970;40.998;2023-02-13T10:22:37;99328.13;;;-4.81;100.00
42859;BME280;28505;56.970;40.998;2023-02-13T10:28:14;99334.22;;;-4.80;100.00
42859;BME280;28505;56.970;40.998;2023-02-13T10:33:59;99311.97;;;-4.91;100.00
42859;BME280;28505;56.970;40.998;2023-02-13T10:39:29;99309.13;;;-4.83;100.00
42859;BME280;28505;56.970;40.998;2023-02-13T10:45:12;99313.72;;;-4.72;100.00
42859;BME280;28505;56.970;40.998;2023-02-13T10:51:10;99319.34;;;-4.61;100.00
42859;BME280;28505;56.970;40.998;2023-02-13T10:56:55;99312.06;;;-4.59;100.00
42859;BME280;28505;56.970;40.998;2023-02-13T11:02:22;99307.81;;;-4.60;100.00
42859;BME280;28505;56.970;40.998;2023-02-13T11:07:46;99300.88;;;-4.55;100.00
42859;BME280;28505;56.970;40.998;2023-02-13T11:13:19;99272.94;;;-4.49;100.00
42859;BME280;28505;56.970;40.998;2023-02-13T11:18:48;99253.94;;;-4.51;100.00
42859;BME280;28505;56.970;40.998;2023-02-13T11:24:22;99258.75;;;-4.41;100.00
42859;BME280;28505;56.970;40.998;2023-02-13T11:29:56;99253.38;;;-4.28;100.00
42859;BME280;28505;56.970;40.998;2023-02-13T11:35:31;99227.38;;;-4.43;100.00
42859;BME280;28505;56.970;40.998;2023-02-13T11:41:13;99221.50;;;-4.45;100.00
42859;BME280;28505;56.970;40.998;2023-02-13T11:46:48;99229.16;;;-4.37;100.00
42859;BME280;28505;56.970;40.998;2023-02-13T11:52:26;99226.66;;;-4.32;100.00
42859;BME280;28505;56.970;40.998;2023-02-13T11:58:22;99236.94;;;-4.24;100.00
42859;BME280;28505;56.970;40.998;2023-02-13T12:03:56;99181.66;;;-4.49;100.00
42859;BME280;28505;56.970;40.998;2023-02-13T12:09:18;99208.00;;;-4.24;100.00
42859;BME280;28505;56.970;40.998;2023-02-13T12:14:42;99201.44;;;-4.14;100.00
42859;BME280;28505;56.970;40.998;2023-02-13T12:20:14;99161.97;;;-4.14;100.00
42859;BME280;28505;56.970;40.998;2023-02-13T12:25:53;99158.84;;;-4.05;100.00
42859;BME280;28505;56.970;40.998;2023-02-13T12:31:46;99153.28;;;-3.96;100.00
42859;BME280;28505;56.970;40.998;2023-02-13T12:37:42;99136.47;;;-3.95;100.00
42859;BME280;28505;56.970;40.998;2023-02-13T12:43:30;99123.50;;;-3.97;100.00
42859;BME280;28505;56.970;40.998;2023-02-13T12:54:49;99109.63;;;-4.04;100.00
42859;BME280;28505;56.970;40.998;2023-02-13T13:11:52;99109.19;;;-4.01;100.00
42859;BME280;28505;56.970;40.998;2023-02-13T13:17:47;99086.06;;;-4.17;100.00
42859;BME280;28505;56.970;40.998;2023-02-13T13:23:53;99103.47;;;-4.16;100.00
42859;BME280;28505;56.970;40.998;2023-02-13T13:29:26;99100.03;;;-4.17;100.00
42859;BME280;28505;56.970;40.998;2023-02-13T13:34:50;99080.16;;;-4.31;100.00
42859;BME280;28505;56.970;40.998;2023-02-13T13:40:32;99097.75;;;-4.13;100.00
42859;BME280;28505;56.970;40.998;2023-02-13T13:46:10;99104.69;;;-4.19;100.00
42859;BME280;28505;56.970;40.998;2023-02-13T13:51:36;99059.16;;;-4.38;100.00
42859;BME280;28505;56.970;40.998;2023-02-13T14:02:25;99077.94;;;-4.16;100.00
42859;BME280;28505;56.970;40.998;2023-02-13T14:07:53;99059.47;;;-4.28;100.00
42859;BME280;28505;56.970;40.998;2023-02-13T14:13:29;99061.34;;;-4.16;100.00
42859;BME280;28505;56.970;40.998;2023-02-13T14:18:52;99052.41;;;-4.15;100.00
42859;BME280;28505;56.970;40.998;2023-02-13T14:24:17;99055.00;;;-4.09;100.00
42859;BME280;28505;56.970;40.998;2023-02-13T14:29:46;99041.69;;;-4.14;100.00
42859;BME280;28505;56.970;40.998;2023-02-13T14:35:22;99051.91;;;-4.06;100.00
42859;BME280;28505;56.970;40.998;2023-02-13T14:40:52;99022.94;;;-4.06;100.00
42859;BME280;28505;56.970;40.998;2023-02-13T14:46:25;99012.22;;;-4.04;100.00
42859;BME280;28505;56.970;40.998;2023-02-13T14:51:54;98996.88;;;-4.07;100.00
42859;BME280;28505;56.970;40.998;2023-02-13T14:57:28;98979.84;;;-4.05;100.00
42859;BME280;28505;56.970;40.998;2023-02-13T15:03:26;98958.50;;;-4.15;100.00
42859;BME280;28505;56.970;40.998;2023-02-13T15:08:51;98973.25;;;-3.95;100.00
42859;BME280;28505;56.970;40.998;2023-02-13T15:19:49;98932.84;;;-4.19;100.00
42859;BME280;28505;56.970;40.998;2023-02-13T15:25:32;98957.66;;;-3.97;100.00
42859;BME280;28505;56.970;40.998;2023-02-13T15:31:03;98941.66;;;-3.95;100.00
42859;BME280;28505;56.970;40.998;2023-02-13T15:36:38;98925.47;;;-3.99;100.00
42859;BME280;28505;56.970;40.998;2023-02-13T15:42:01;98911.50;;;-4.00;100.00
42859;BME280;28505;56.970;40.998;2023-02-13T15:47:29;98894.91;;;-4.00;100.00
42859;BME280;28505;56.970;40.998;2023-02-13T15:52:52;98892.53;;;-4.02;100.00
42859;BME280;28505;56.970;40.998;2023-02-13T15:58:15;98890.78;;;-3.96;100.00
42859;BME280;28505;56.970;40.998;2023-02-13T16:03:39;98885.09;;;-3.93;100.00
42859;BME280;28505;56.970;40.998;2023-02-13T16:09:03;98880.84;;;-3.94;100.00
42859;BME280;28505;56.970;40.998;2023-02-13T16:14:29;98869.31;;;-3.81;100.00
42859;BME280;28505;56.970;40.998;2023-02-13T16:25:37;98851.94;;;-3.82;100.00
42859;BME280;28505;56.970;40.998;2023-02-13T16:31:01;98839.47;;;-3.75;100.00
42859;BME280;28505;56.970;40.998;2023-02-13T16:36:28;98824.31;;;-3.80;100.00
42859;BME280;28505;56.970;40.998;2023-02-13T16:41:53;98814.81;;;-3.81;100.00
42859;BME280;28505;56.970;40.998;2023-02-13T16:47:22;98825.47;;;-3.64;100.00
42859;BME280;28505;56.970;40.998;2023-02-13T16:52:46;98815.19;;;-3.65;100.00
42859;BME280;28505;56.970;40.998;2023-02-13T16:58:11;98803.63;;;-3.64;100.00
42859;BME280;28505;56.970;40.998;2023-02-13T17:03:40;98801.66;;;-3.57;100.00
42859;BME280;28505;56.970;40.998;2023-02-13T17:09:02;98779.69;;;-3.63;100.00
42859;BME280;28505;56.970;40.998;2023-02-13T17:14:24;98749.69;;;-3.73;100.00
42859;BME280;28505;56.970;40.998;2023-02-13T17:19:47;98763.88;;;-3.51;100.00
42859;BME280;28505;56.970;40.998;2023-02-13T17:25:21;98764.06;;;-3.41;100.00
42859;BME280;28505;56.970;40.998;2023-02-13T17:30:44;98742.78;;;-3.39;100.00
42859;BME280;28505;56.970;40.998;2023-02-13T17:36:09;98746.53;;;-3.35;100.00
42859;BME280;28505;56.970;40.998;2023-02-13T17:41:32;98730.16;;;-3.37;100.00
42859;BME280;28505;56.970;40.998;2023-02-13T17:46:54;98718.34;;;-3.35;100.00
42859;BME280;28505;56.970;40.998;2023-02-13T17:52:23;98696.59;;;-3.30;100.00
42859;BME280;28505;56.970;40.998;2023-02-13T17:58:10;98704.13;;;-3.22;100.00
42859;BME280;28505;56.970;40.998;2023-02-13T18:03:36;98682.94;;;-3.27;100.00
42859;BME280;28505;56.970;40.998;2023-02-13T18:09:01;98669.19;;;-3.29;100.00
42859;BME280;28505;56.970;40.998;2023-02-13T18:14:23;98663.78;;;-3.22;100.00
42859;BME280;28505;56.970;40.998;2023-02-13T18:19:49;98657.00;;;-3.18;100.00
42859;BME280;28505;56.970;40.998;2023-02-13T18:25:12;98642.31;;;-3.14;100.00
42859;BME280;28505;56.970;40.998;2023-02-13T18:30:35;98649.38;;;-3.03;100.00
42859;BME280;28505;56.970;40.998;2023-02-13T18:36:01;98619.94;;;-3.12;100.00
42859;BME280;28505;56.970;40.998;2023-02-13T18:41:24;98610.22;;;-3.11;100.00
42859;BME280;28505;56.970;40.998;2023-02-13T18:46:46;98594.97;;;-3.09;100.00
42859;BME280;28505;56.970;40.998;2023-02-13T18:52:08;98593.69;;;-3.07;100.00
42859;BME280;28505;56.970;40.998;2023-02-13T18:57:30;98607.13;;;-2.91;100.00
42859;BME280;28505;56.970;40.998;2023-02-13T19:02:57;98603.22;;;-2.89;100.00
42859;BME280;28505;56.970;40.998;2023-02-13T19:08:19;98592.19;;;-2.86;100.00
42859;BME280;28505;56.970;40.998;2023-02-13T19:13:42;98580.59;;;-2.85;100.00
42859;BME280;28505;56.970;40.998;2023-02-13T19:19:05;98580.69;;;-2.79;100.00
42859;BME280;28505;56.970;40.998;2023-02-13T19:24:27;98555.25;;;-2.86;100.00
42859;BME280;28505;56.970;40.998;2023-02-13T19:29:50;98557.03;;;-2.74;100.00
42859;BME280;28505;56.970;40.998;2023-02-13T19:35:12;98539.28;;;-2.79;100.00
42859;BME280;28505;56.970;40.998;2023-02-13T19:40:34;98540.22;;;-2.68;100.00
42859;BME280;28505;56.970;40.998;2023-02-13T19:46:00;98540.31;;;-2.63;100.00
42859;BME280;28505;56.970;40.998;2023-02-13T19:51:24;98528.69;;;-2.62;100.00
42859;BME280;28505;56.970;40.998;2023-02-13T19:56:46;98514.22;;;-2.60;100.00
42859;BME280;28505;56.970;40.998;2023-02-13T20:02:12;98504.16;;;-2.63;100.00
42859;BME280;28505;56.970;40.998;2023-02-13T20:07:43;98499.47;;;-2.61;100.00
42859;BME280;28505;56.970;40.998;2023-02-13T20:13:09;98466.34;;;-2.68;100.00
42859;BME280;28505;56.970;40.998;2023-02-13T20:18:32;98491.19;;;-2.47;100.00
42859;BME280;28505;56.970;40.998;2023-02-13T20:23:55;98471.78;;;-2.58;100.00
42859;BME280;28505;56.970;40.998;2023-02-13T20:29:17;98462.34;;;-2.54;100.00
42859;BME280;28505;56.970;40.998;2023-02-13T20:34:40;98453.88;;;-2.56;100.00
42859;BME280;28505;56.970;40.998;2023-02-13T20:40:20;98460.81;;;-2.50;100.00
42859;BME280;28505;56.970;40.998;2023-02-13T20:45:42;98473.63;;;-2.37;100.00
42859;BME280;28505;56.970;40.998;2023-02-13T20:51:09;98476.88;;;-2.29;100.00
42859;BME280;28505;56.970;40.998;2023-02-13T20:56:35;98465.72;;;-2.37;100.00
42859;BME280;28505;56.970;40.998;2023-02-13T21:01:57;98458.91;;;-2.32;100.00
42859;BME280;28505;56.970;40.998;2023-02-13T21:07:21;98476.16;;;-2.25;100.00
42859;BME280;28505;56.970;40.998;2023-02-13T21:12:43;98457.31;;;-2.33;100.00
42859;BME280;28505;56.970;40.998;2023-02-13T21:18:05;98448.59;;;-2.34;100.00
42859;BME280;28505;56.970;40.998;2023-02-13T21:23:27;98448.16;;;-2.26;100.00
42859;BME280;28505;56.970;40.998;2023-02-13T21:28:50;98457.00;;;-2.15;100.00
42859;BME280;28505;56.970;40.998;2023-02-13T21:34:13;98457.25;;;-2.17;100.00
42859;BME280;28505;56.970;40.998;2023-02-13T21:39:35;98450.66;;;-2.14;100.00
42859;BME280;28505;56.970;40.998;2023-02-13T21:44:58;98450.59;;;-2.19;100.00
42859;BME280;28505;56.970;40.998;2023-02-13T21:50:20;98444.00;;;-2.22;100.00
42859;BME280;28505;56.970;40.998;2023-02-13T21:55:42;98459.03;;;-2.22;100.00
42859;BME280;28505;56.970;40.998;2023-02-13T22:01:13;98454.78;;;-2.23;100.00
42859;BME280;28505;56.970;40.998;2023-02-13T22:06:49;98463.31;;;-2.16;100.00
42859;BME280;28505;56.970;40.998;2023-02-13T22:12:11;98432.19;;;-2.36;100.00
42859;BME280;28505;56.970;40.998;2023-02-13T22:17:33;98468.59;;;-2.16;100.00
42859;BME280;28505;56.970;40.998;2023-02-13T22:22:57;98441.78;;;-2.30;100.00
42859;BME280;28505;56.970;40.998;2023-02-13T22:28:19;98469.94;;;-2.14;100.00
42859;BME280;28505;56.970;40.998;2023-02-13T22:33:42;98452.63;;;-2.26;100.00
42859;BME280;28505;56.970;40.998;2023-02-13T22:39:10;98435.97;;;-2.32;100.00
42859;BME280;28505;56.970;40.998;2023-02-13T22:44:33;98451.66;;;-2.20;100.00
42859;BME280;28505;56.970;40.998;2023-02-13T22:49:55;98425.03;;;-2.41;100.00
42859;BME280;28505;56.970;40.998;2023-02-13T22:55:17;98457.44;;;-2.23;100.00
42859;BME280;28505;56.970;40.998;2023-02-13T23:00:40;98467.94;;;-2.28;100.00
42859;BME280;28505;56.970;40.998;2023-02-13T23:06:04;98472.91;;;-2.32;100.00
42859;BME280;28505;56.970;40.998;2023-02-13T23:11:27;98472.03;;;-2.38;100.00
42859;BME280;28505;56.970;40.998;2023-02-13T23:17:08;98468.78;;;-2.45;100.00
42859;BME280;28505;56.970;40.998;2023-02-13T23:22:48;98461.84;;;-2.51;100.00
42859;BME280;28505;56.970;40.998;2023-02-13T23:28:11;98474.06;;;-2.45;100.00
42859;BME280;28505;56.970;40.998;2023-02-13T23:33:33;98472.72;;;-2.47;100.00
42859;BME280;28505;56.970;40.998;2023-02-13T23:38:55;98471.94;;;-2.48;100.00
42859;BME280;28505;56.970;40.998;2023-02-13T23:44:17;98488.41;;;-2.36;100.00
42859;BME280;28505;56.970;40.998;2023-02-13T23:49:39;98496.41;;;-2.30;100.00
42859;BME280;28505;56.970;40.998;2023-02-13T23:55:01;98502.75;;;-2.31;100.00
